sensor_id;sensor_type;location;lat;lon;timestamp;temperature;humidity
26691;DHT22;14307;51.718;8.938;2024-01-16T00:00:30;0.40;99.90
26691;DHT22;14307;51.718;8.938;2024-01-16T00:02:58;0.40;99.90
26691;DHT22;14307;51.718;8.938;2024-01-16T00:05:24;0.40;99.90
26691;DHT22;14307;51.718;8.938;2024-01-16T00:07:51;0.40;99.90
26691;DHT22;14307;51.718;8.938;2024-01-16T00:10:18;0.40;99.90
26691;DHT22;14307;51.718;8.938;2024-01-16T00:12:44;0.40;99.90
26691;DHT22;14307;51.718;8.938;2024-01-16T00:15:11;0.40;99.90
26691;DHT22;14307;51.718;8.938;2024-01-16T00:17:38;0.40;99.90
26691;DHT22;14307;51.718;8.938;2024-01-16T00:20:05;0.40;99.90
26691;DHT22;14307;51.718;8.938;2024-01-16T00:22:32;0.40;99.90
26691;DHT22;14307;51.718;8.938;2024-01-16T00:24:59;0.40;99.90
26691;DHT22;14307;51.718;8.938;2024-01-16T00:27:26;0.40;99.90
26691;DHT22;14307;51.718;8.938;2024-01-16T00:29:53;0.30;99.90
26691;DHT22;14307;51.718;8.938;2024-01-16T00:32:19;0.30;99.90
26691;DHT22;14307;51.718;8.938;2024-01-16T00:34:46;0.30;99.90
26691;DHT22;14307;51.718;8.938;2024-01-16T00:37:13;0.30;99.90
26691;DHT22;14307;51.718;8.938;2024-01-16T00:39:40;0.40;99.90
26691;DHT22;14307;51.718;8.938;2024-01-16T00:42:07;0.30;99.90
26691;DHT22;14307;51.718;8.938;2024-01-16T00:44:34;0.30;99.90
26691;DHT22;14307;51.718;8.938;2024-01-16T00:47:01;0.30;99.90
26691;DHT22;14307;51.718;8.938;2024-01-16T00:49:28;0.30;99.90
26691;DHT22;14307;51.718;8.938;2024-01-16T00:51:55;0.30;99.90
26691;DHT22;14307;51.718;8.938;2024-01-16T00:54:22;0.20;99.90
26691;DHT22;14307;51.718;8.938;2024-01-16T00:56:49;0.20;99.90
26691;DHT22;14307;51.718;8.938;2024-01-16T00:59:16;0.20;99.90
26691;DHT22;14307;51.718;8.938;2024-01-16T01:01:43;0.20;99.90
26691;DHT22;14307;51.718;8.938;2024-01-16T01:04:10;0.20;99.90
26691;DHT22;14307;51.718;8.938;2024-01-16T01:06:37;0.20;99.90
26691;DHT22;14307;51.718;8.938;2024-01-16T01:09:04;0.20;99.90
26691;DHT22;14307;51.718;8.938;2024-01-16T01:11:30;0.20;99.90
26691;DHT22;14307;51.718;8.938;2024-01-16T01:13:58;0.20;99.90
26691;DHT22;14307;51.718;8.938;2024-01-16T01:16:25;0.20;99.90
26691;DHT22;14307;51.718;8.938;2024-01-16T01:18:52;0.10;99.90
26691;DHT22;14307;51.718;8.938;2024-01-16T01:21:18;0.20;99.90
26691;DHT22;14307;51.718;8.938;2024-01-16T01:23:45;0.10;99.90
26691;DHT22;14307;51.718;8.938;2024-01-16T01:26:12;0.10;99.90
26691;DHT22;14307;51.718;8.938;2024-01-16T01:28:40;0.10;99.90
26691;DHT22;14307;51.718;8.938;2024-01-16T01:31:11;0.10;99.90
26691;DHT22;14307;51.718;8.938;2024-01-16T01:33:39;0.10;99.90
26691;DHT22;14307;51.718;8.938;2024-01-16T01:36:06;0.10;99.90
26691;DHT22;14307;51.718;8.938;2024-01-16T01:38:33;0.10;99.90
26691;DHT22;14307;51.718;8.938;2024-01-16T01:41:00;0.10;99.90
26691;DHT22;14307;51.718;8.938;2024-01-16T01:43:27;0.10;99.90
26691;DHT22;14307;51.718;8.938;2024-01-16T01:46:08;0.10;99.90
26691;DHT22;14307;51.718;8.938;2024-01-16T01:48:40;0.10;99.90
26691;DHT22;14307;51.718;8.938;2024-01-16T01:51:13;0.10;99.90
26691;DHT22;14307;51.718;8.938;2024-01-16T01:53:41;0.10;99.90
26691;DHT22;14307;51.718;8.938;2024-01-16T01:56:11;0.10;99.90
26691;DHT22;14307;51.718;8.938;2024-01-16T01:58:41;0.10;99.90
26691;DHT22;14307;51.718;8.938;2024-01-16T02:01:11;0.10;99.90
26691;DHT22;14307;51.718;8.938;2024-01-16T02:03:42;0.10;99.90
26691;DHT22;14307;51.718;8.938;2024-01-16T02:06:11;0.10;99.90
26691;DHT22;14307;51.718;8.938;2024-01-16T02:08:41;0.10;99.90
26691;DHT22;14307;51.718;8.938;2024-01-16T02:11:09;0.10;99.90
26691;DHT22;14307;51.718;8.938;2024-01-16T02:13:37;0.10;99.90
26691;DHT22;14307;51.718;8.938;2024-01-16T02:16:03;0.10;99.90
26691;DHT22;14307;51.718;8.938;2024-01-16T02:18:32;0.10;99.90
26691;DHT22;14307;51.718;8.938;2024-01-16T02:21:00;0.10;99.90
26691;DHT22;14307;51.718;8.938;2024-01-16T02:23:30;0.10;99.90
26691;DHT22;14307;51.718;8.938;2024-01-16T02:25:58;0.10;99.90
26691;DHT22;14307;51.718;8.938;2024-01-16T02:28:25;0.20;99.90
26691;DHT22;14307;51.718;8.938;2024-01-16T02:30:52;0.20;99.90
26691;DHT22;14307;51.718;8.938;2024-01-16T02:33:25;0.20;99.90
26691;DHT22;14307;51.718;8.938;2024-01-16T02:35:52;0.20;99.90
26691;DHT22;14307;51.718;8.938;2024-01-16T02:38:19;0.20;99.90
26691;DHT22;14307;51.718;8.938;2024-01-16T02:40:46;0.20;99.90
26691;DHT22;14307;51.718;8.938;2024-01-16T02:43:13;0.20;99.90
26691;DHT22;14307;51.718;8.938;2024-01-16T02:45:40;0.10;99.90
26691;DHT22;14307;51.718;8.938;2024-01-16T02:48:07;0.20;99.90
26691;DHT22;14307;51.718;8.938;2024-01-16T02:50:34;0.10;99.90
26691;DHT22;14307;51.718;8.938;2024-01-16T02:53:00;0.10;99.90
26691;DHT22;14307;51.718;8.938;2024-01-16T02:55:27;0.10;99.90
26691;DHT22;14307;51.718;8.938;2024-01-16T02:57:54;0.10;99.90
26691;DHT22;14307;51.718;8.938;2024-01-16T03:00:21;0.10;99.90
26691;DHT22;14307;51.718;8.938;2024-01-16T03:02:49;0.10;99.90
26691;DHT22;14307;51.718;8.938;2024-01-16T03:05:16;0.10;99.90
26691;DHT22;14307;51.718;8.938;2024-01-16T03:07:43;0.10;99.90
26691;DHT22;14307;51.718;8.938;2024-01-16T03:10:10;0.10;99.90
26691;DHT22;14307;51.718;8.938;2024-01-16T03:12:37;0.10;99.90
26691;DHT22;14307;51.718;8.938;2024-01-16T03:15:04;0.10;99.90
26691;DHT22;14307;51.718;8.938;2024-01-16T03:17:32;0.10;99.90
26691;DHT22;14307;51.718;8.938;2024-01-16T03:19:59;0.10;99.90
26691;DHT22;14307;51.718;8.938;2024-01-16T03:22:26;0.10;99.90
26691;DHT22;14307;51.718;8.938;2024-01-16T03:24:52;0.10;99.90
26691;DHT22;14307;51.718;8.938;2024-01-16T03:27:19;0.10;99.90
26691;DHT22;14307;51.718;8.938;2024-01-16T03:29:47;0.10;99.90
26691;DHT22;14307;51.718;8.938;2024-01-16T03:32:15;0.10;99.90
26691;DHT22;14307;51.718;8.938;2024-01-16T03:34:41;0.10;99.90
26691;DHT22;14307;51.718;8.938;2024-01-16T03:37:08;0.00;99.90
26691;DHT22;14307;51.718;8.938;2024-01-16T03:39:35;0.10;99.90
26691;DHT22;14307;51.718;8.938;2024-01-16T03:42:05;0.10;99.90
26691;DHT22;14307;51.718;8.938;2024-01-16T03:44:32;0.10;99.90
26691;DHT22;14307;51.718;8.938;2024-01-16T03:46:59;0.10;99.90
26691;DHT22;14307;51.718;8.938;2024-01-16T03:49:26;0.00;99.90
26691;DHT22;14307;51.718;8.938;2024-01-16T03:51:52;0.00;99.90
26691;DHT22;14307;51.718;8.938;2024-01-16T03:54:19;0.00;99.90
26691;DHT22;14307;51.718;8.938;2024-01-16T03:56:46;0.00;99.90
26691;DHT22;14307;51.718;8.938;2024-01-16T03:59:13;-0.10;99.90
26691;DHT22;14307;51.718;8.938;2024-01-16T04:01:40;0.00;99.90
26691;DHT22;14307;51.718;8.938;2024-01-16T04:04:08;-0.10;99.90
26691;DHT22;14307;51.718;8.938;2024-01-16T04:06:35;0.00;99.90
26691;DHT22;14307;51.718;8.938;2024-01-16T04:09:02;0.00;99.90
26691;DHT22;14307;51.718;8.938;2024-01-16T04:11:29;0.00;99.90
26691;DHT22;14307;51.718;8.938;2024-01-16T04:13:56;0.00;99.90
26691;DHT22;14307;51.718;8.938;2024-01-16T04:16:23;0.00;99.90
26691;DHT22;14307;51.718;8.938;2024-01-16T04:18:50;0.00;99.90
26691;DHT22;14307;51.718;8.938;2024-01-16T04:21:17;0.00;99.90
26691;DHT22;14307;51.718;8.938;2024-01-16T04:23:46;0.00;99.90
26691;DHT22;14307;51.718;8.938;2024-01-16T04:26:13;0.00;99.90
26691;DHT22;14307;51.718;8.938;2024-01-16T04:28:40;0.00;99.90
26691;DHT22;14307;51.718;8.938;2024-01-16T04:31:08;0.00;99.90
26691;DHT22;14307;51.718;8.938;2024-01-16T04:33:35;0.00;99.90
26691;DHT22;14307;51.718;8.938;2024-01-16T04:36:02;0.00;99.90
26691;DHT22;14307;51.718;8.938;2024-01-16T04:38:29;0.00;99.90
26691;DHT22;14307;51.718;8.938;2024-01-16T04:40:55;0.00;99.90
26691;DHT22;14307;51.718;8.938;2024-01-16T04:43:22;0.00;99.90
26691;DHT22;14307;51.718;8.938;2024-01-16T04:45:49;0.00;99.90
26691;DHT22;14307;51.718;8.938;2024-01-16T04:48:16;0.00;99.90
26691;DHT22;14307;51.718;8.938;2024-01-16T04:50:43;0.00;99.90
26691;DHT22;14307;51.718;8.938;2024-01-16T04:53:12;0.00;99.90
26691;DHT22;14307;51.718;8.938;2024-01-16T04:55:38;0.00;99.90
26691;DHT22;14307;51.718;8.938;2024-01-16T04:58:05;0.00;99.90
26691;DHT22;14307;51.718;8.938;2024-01-16T05:00:32;0.00;99.90
26691;DHT22;14307;51.718;8.938;2024-01-16T05:02:59;0.00;99.90
26691;DHT22;14307;51.718;8.938;2024-01-16T05:05:26;-0.10;99.90
26691;DHT22;14307;51.718;8.938;2024-01-16T05:07:55;0.00;99.90
26691;DHT22;14307;51.718;8.938;2024-01-16T05:10:22;-0.10;99.90
26691;DHT22;14307;51.718;8.938;2024-01-16T05:12:49;-0.10;99.90
26691;DHT22;14307;51.718;8.938;2024-01-16T05:15:16;-0.10;99.90
26691;DHT22;14307;51.718;8.938;2024-01-16T05:17:42;-0.10;99.90
26691;DHT22;14307;51.718;8.938;2024-01-16T05:20:09;-0.10;99.90
26691;DHT22;14307;51.718;8.938;2024-01-16T05:22:37;-0.10;99.90
26691;DHT22;14307;51.718;8.938;2024-01-16T05:25:06;-0.10;99.90
26691;DHT22;14307;51.718;8.938;2024-01-16T05:27:35;-0.10;99.90
26691;DHT22;14307;51.718;8.938;2024-01-16T05:30:02;-0.10;99.90
26691;DHT22;14307;51.718;8.938;2024-01-16T05:32:30;0.00;99.90
26691;DHT22;14307;51.718;8.938;2024-01-16T05:34:57;0.00;99.90
26691;DHT22;14307;51.718;8.938;2024-01-16T05:37:24;-0.10;99.90
26691;DHT22;14307;51.718;8.938;2024-01-16T05:39:51;-0.10;99.90
26691;DHT22;14307;51.718;8.938;2024-01-16T05:42:17;-0.10;99.90
26691;DHT22;14307;51.718;8.938;2024-01-16T05:44:44;0.00;99.90
26691;DHT22;14307;51.718;8.938;2024-01-16T05:47:11;-0.10;99.90
26691;DHT22;14307;51.718;8.938;2024-01-16T05:49:38;-0.10;99.90
26691;DHT22;14307;51.718;8.938;2024-01-16T05:52:05;0.00;99.90
26691;DHT22;14307;51.718;8.938;2024-01-16T05:54:32;0.00;99.90
26691;DHT22;14307;51.718;8.938;2024-01-16T05:56:59;0.00;99.90
26691;DHT22;14307;51.718;8.938;2024-01-16T05:59:26;-0.10;99.90
26691;DHT22;14307;51.718;8.938;2024-01-16T06:01:53;0.00;99.90
26691;DHT22;14307;51.718;8.938;2024-01-16T06:04:20;0.00;99.90
26691;DHT22;14307;51.718;8.938;2024-01-16T06:06:46;0.00;99.90
26691;DHT22;14307;51.718;8.938;2024-01-16T06:09:15;0.10;99.90
26691;DHT22;14307;51.718;8.938;2024-01-16T06:11:42;0.10;99.90
26691;DHT22;14307;51.718;8.938;2024-01-16T06:14:09;0.10;99.90
26691;DHT22;14307;51.718;8.938;2024-01-16T06:16:36;0.10;99.90
26691;DHT22;14307;51.718;8.938;2024-01-16T06:19:03;0.10;99.90
26691;DHT22;14307;51.718;8.938;2024-01-16T06:21:31;0.10;99.90
26691;DHT22;14307;51.718;8.938;2024-01-16T06:23:58;0.00;99.90
26691;DHT22;14307;51.718;8.938;2024-01-16T06:26:25;0.00;99.90
26691;DHT22;14307;51.718;8.938;2024-01-16T06:28:52;0.10;99.90
26691;DHT22;14307;51.718;8.938;2024-01-16T06:31:19;0.10;99.90
26691;DHT22;14307;51.718;8.938;2024-01-16T06:33:46;0.10;99.90
26691;DHT22;14307;51.718;8.938;2024-01-16T06:36:13;0.10;99.90
26691;DHT22;14307;51.718;8.938;2024-01-16T06:38:39;0.00;99.90
26691;DHT22;14307;51.718;8.938;2024-01-16T06:41:07;0.00;99.90
26691;DHT22;14307;51.718;8.938;2024-01-16T06:43:34;0.10;99.90
26691;DHT22;14307;51.718;8.938;2024-01-16T06:46:01;0.10;99.90
26691;DHT22;14307;51.718;8.938;2024-01-16T06:48:28;0.00;99.90
26691;DHT22;14307;51.718;8.938;2024-01-16T06:50:55;0.00;99.90
26691;DHT22;14307;51.718;8.938;2024-01-16T06:53:22;0.10;99.90
26691;DHT22;14307;51.718;8.938;2024-01-16T06:55:49;0.10;99.90
26691;DHT22;14307;51.718;8.938;2024-01-16T06:58:16;0.10;99.90
26691;DHT22;14307;51.718;8.938;2024-01-16T07:00:43;0.20;99.90
26691;DHT22;14307;51.718;8.938;2024-01-16T07:03:11;0.20;99.90
26691;DHT22;14307;51.718;8.938;2024-01-16T07:05:38;0.20;99.90
26691;DHT22;14307;51.718;8.938;2024-01-16T07:08:05;0.10;99.90
26691;DHT22;14307;51.718;8.938;2024-01-16T07:10:31;0.10;99.90
26691;DHT22;14307;51.718;8.938;2024-01-16T07:12:59;0.20;99.90
26691;DHT22;14307;51.718;8.938;2024-01-16T07:15:26;0.20;99.90
26691;DHT22;14307;51.718;8.938;2024-01-16T08:24:55;0.00;99.90
26691;DHT22;14307;51.718;8.938;2024-01-16T08:27:22;0.40;99.90
26691;DHT22;14307;51.718;8.938;2024-01-16T08:29:49;0.40;99.90
26691;DHT22;14307;51.718;8.938;2024-01-16T08:32:16;0.40;99.90
26691;DHT22;14307;51.718;8.938;2024-01-16T08:34:43;0.40;99.90
26691;DHT22;14307;51.718;8.938;2024-01-16T08:37:10;0.40;99.90
26691;DHT22;14307;51.718;8.938;2024-01-16T08:39:37;0.40;99.90
26691;DHT22;14307;51.718;8.938;2024-01-16T08:42:05;0.40;99.90
26691;DHT22;14307;51.718;8.938;2024-01-16T08:44:32;0.40;99.90
26691;DHT22;14307;51.718;8.938;2024-01-16T08:46:59;0.30;99.90
26691;DHT22;14307;51.718;8.938;2024-01-16T08:49:27;0.40;99.90
26691;DHT22;14307;51.718;8.938;2024-01-16T08:51:54;0.40;99.90
26691;DHT22;14307;51.718;8.938;2024-01-16T08:54:21;0.40;99.90
26691;DHT22;14307;51.718;8.938;2024-01-16T08:56:49;0.40;99.90
26691;DHT22;14307;51.718;8.938;2024-01-16T08:59:16;0.40;99.90
26691;DHT22;14307;51.718;8.938;2024-01-16T09:01:43;0.40;99.90
26691;DHT22;14307;51.718;8.938;2024-01-16T09:04:10;0.40;99.90
26691;DHT22;14307;51.718;8.938;2024-01-16T09:06:38;0.40;99.90
26691;DHT22;14307;51.718;8.938;2024-01-16T09:09:05;0.50;99.90
26691;DHT22;14307;51.718;8.938;2024-01-16T09:11:32;0.40;99.90
26691;DHT22;14307;51.718;8.938;2024-01-16T09:14:00;0.40;99.90
26691;DHT22;14307;51.718;8.938;2024-01-16T09:16:30;0.40;99.90
26691;DHT22;14307;51.718;8.938;2024-01-16T09:18:57;0.40;99.90
26691;DHT22;14307;51.718;8.938;2024-01-16T09:21:24;0.40;99.90
26691;DHT22;14307;51.718;8.938;2024-01-16T09:23:52;0.40;99.90
26691;DHT22;14307;51.718;8.938;2024-01-16T09:26:19;0.50;99.90
26691;DHT22;14307;51.718;8.938;2024-01-16T09:28:46;0.50;99.90
26691;DHT22;14307;51.718;8.938;2024-01-16T09:31:15;0.50;99.90
26691;DHT22;14307;51.718;8.938;2024-01-16T09:33:42;0.40;99.90
26691;DHT22;14307;51.718;8.938;2024-01-16T09:36:10;0.40;99.90
26691;DHT22;14307;51.718;8.938;2024-01-16T09:38:37;0.50;99.90
26691;DHT22;14307;51.718;8.938;2024-01-16T09:41:05;0.50;99.90
26691;DHT22;14307;51.718;8.938;2024-01-16T09:43:37;0.50;99.90
26691;DHT22;14307;51.718;8.938;2024-01-16T09:46:04;0.60;99.90
26691;DHT22;14307;51.718;8.938;2024-01-16T09:48:32;0.60;99.90
26691;DHT22;14307;51.718;8.938;2024-01-16T09:50:59;0.60;99.90
26691;DHT22;14307;51.718;8.938;2024-01-16T09:53:27;0.60;99.90
26691;DHT22;14307;51.718;8.938;2024-01-16T09:55:54;0.60;99.90
26691;DHT22;14307;51.718;8.938;2024-01-16T09:58:25;0.60;99.90
26691;DHT22;14307;51.718;8.938;2024-01-16T10:00:52;0.60;99.90
26691;DHT22;14307;51.718;8.938;2024-01-16T10:03:20;0.50;99.90
26691;DHT22;14307;51.718;8.938;2024-01-16T10:05:48;0.50;99.90
26691;DHT22;14307;51.718;8.938;2024-01-16T10:08:15;0.50;99.90
26691;DHT22;14307;51.718;8.938;2024-01-16T10:10:42;0.60;99.90
26691;DHT22;14307;51.718;8.938;2024-01-16T10:13:17;0.70;99.90
26691;DHT22;14307;51.718;8.938;2024-01-16T10:15:44;0.60;99.90
26691;DHT22;14307;51.718;8.938;2024-01-16T10:18:22;0.60;99.90
26691;DHT22;14307;51.718;8.938;2024-01-16T10:20:52;0.50;99.90
26691;DHT22;14307;51.718;8.938;2024-01-16T10:23:24;0.50;99.90
26691;DHT22;14307;51.718;8.938;2024-01-16T10:26:12;0.40;99.90
26691;DHT22;14307;51.718;8.938;2024-01-16T10:28:42;0.40;99.90
26691;DHT22;14307;51.718;8.938;2024-01-16T10:31:11;0.40;99.90
26691;DHT22;14307;51.718;8.938;2024-01-16T10:33:40;0.50;99.90
26691;DHT22;14307;51.718;8.938;2024-01-16T10:36:17;0.50;99.90
26691;DHT22;14307;51.718;8.938;2024-01-16T10:38:50;0.40;99.90
26691;DHT22;14307;51.718;8.938;2024-01-16T10:41:24;0.30;99.90
26691;DHT22;14307;51.718;8.938;2024-01-16T10:44:07;0.30;99.90
26691;DHT22;14307;51.718;8.938;2024-01-16T10:46:35;0.30;99.90
26691;DHT22;14307;51.718;8.938;2024-01-16T10:49:04;0.30;99.90
26691;DHT22;14307;51.718;8.938;2024-01-16T10:51:32;0.30;99.90
26691;DHT22;14307;51.718;8.938;2024-01-16T10:54:01;0.30;99.90
26691;DHT22;14307;51.718;8.938;2024-01-16T10:56:31;0.40;99.90
26691;DHT22;14307;51.718;8.938;2024-01-16T10:59:21;0.40;99.90
26691;DHT22;14307;51.718;8.938;2024-01-16T11:01:54;0.30;99.90
26691;DHT22;14307;51.718;8.938;2024-01-16T11:04:24;0.30;99.90
26691;DHT22;14307;51.718;8.938;2024-01-16T11:06:52;0.30;99.90
26691;DHT22;14307;51.718;8.938;2024-01-16T11:09:20;0.30;99.90
26691;DHT22;14307;51.718;8.938;2024-01-16T11:11:50;0.40;99.90
26691;DHT22;14307;51.718;8.938;2024-01-16T11:14:22;0.40;99.90
26691;DHT22;14307;51.718;8.938;2024-01-16T11:16:50;0.40;99.90
26691;DHT22;14307;51.718;8.938;2024-01-16T11:19:21;0.30;99.90
26691;DHT22;14307;51.718;8.938;2024-01-16T11:22:08;0.40;99.90
26691;DHT22;14307;51.718;8.938;2024-01-16T11:24:35;0.50;99.90
26691;DHT22;14307;51.718;8.938;2024-01-16T11:27:02;0.50;99.90
26691;DHT22;14307;51.718;8.938;2024-01-16T11:31:57;0.50;99.90
26691;DHT22;14307;51.718;8.938;2024-01-16T11:34:52;0.50;99.90
26691;DHT22;14307;51.718;8.938;2024-01-16T11:37:29;0.60;99.90
26691;DHT22;14307;51.718;8.938;2024-01-16T11:42:50;0.60;99.90
26691;DHT22;14307;51.718;8.938;2024-01-16T11:48:14;0.50;99.90
26691;DHT22;14307;51.718;8.938;2024-01-16T11:50:43;0.60;99.90
26691;DHT22;14307;51.718;8.938;2024-01-16T11:53:11;0.60;99.90
26691;DHT22;14307;51.718;8.938;2024-01-16T12:01:53;0.60;99.90
26691;DHT22;14307;51.718;8.938;2024-01-16T12:04:24;0.70;99.90
26691;DHT22;14307;51.718;8.938;2024-01-16T12:06:58;0.70;99.90
26691;DHT22;14307;51.718;8.938;2024-01-16T12:09:28;0.60;99.90
26691;DHT22;14307;51.718;8.938;2024-01-16T12:11:59;0.60;99.90
26691;DHT22;14307;51.718;8.938;2024-01-16T12:14:28;0.70;99.90
26691;DHT22;14307;51.718;8.938;2024-01-16T12:17:25;0.70;99.90
26691;DHT22;14307;51.718;8.938;2024-01-16T12:19:52;0.70;99.90
26691;DHT22;14307;51.718;8.938;2024-01-16T12:22:20;0.70;99.90
26691;DHT22;14307;51.718;8.938;2024-01-16T12:24:55;0.70;99.90
26691;DHT22;14307;51.718;8.938;2024-01-16T12:27:22;0.70;99.90
26691;DHT22;14307;51.718;8.938;2024-01-16T12:29:49;0.80;99.90
26691;DHT22;14307;51.718;8.938;2024-01-16T12:32:30;0.80;99.90
26691;DHT22;14307;51.718;8.938;2024-01-16T12:34:58;0.70;99.90
26691;DHT22;14307;51.718;8.938;2024-01-16T12:37:25;0.70;99.90
26691;DHT22;14307;51.718;8.938;2024-01-16T12:39:52;0.60;99.90
26691;DHT22;14307;51.718;8.938;2024-01-16T12:42:19;0.60;99.90
26691;DHT22;14307;51.718;8.938;2024-01-16T12:44:49;0.60;99.90
26691;DHT22;14307;51.718;8.938;2024-01-16T12:47:16;0.60;99.90
26691;DHT22;14307;51.718;8.938;2024-01-16T12:49:49;0.70;99.90
26691;DHT22;14307;51.718;8.938;2024-01-16T12:52:17;0.70;99.90
26691;DHT22;14307;51.718;8.938;2024-01-16T12:54:46;0.70;99.90
26691;DHT22;14307;51.718;8.938;2024-01-16T12:57:22;0.70;99.90
26691;DHT22;14307;51.718;8.938;2024-01-16T12:59:50;0.70;99.90
26691;DHT22;14307;51.718;8.938;2024-01-16T13:02:24;0.60;99.90
26691;DHT22;14307;51.718;8.938;2024-01-16T13:05:00;0.60;99.90
26691;DHT22;14307;51.718;8.938;2024-01-16T13:07:29;0.50;99.90
26691;DHT22;14307;51.718;8.938;2024-01-16T13:10:12;0.50;99.90
26691;DHT22;14307;51.718;8.938;2024-01-16T13:12:47;0.50;99.90
26691;DHT22;14307;51.718;8.938;2024-01-16T13:15:28;0.50;99.90
26691;DHT22;14307;51.718;8.938;2024-01-16T13:18:06;0.50;99.90
26691;DHT22;14307;51.718;8.938;2024-01-16T13:21:26;0.60;99.90
26691;DHT22;14307;51.718;8.938;2024-01-16T13:24:15;0.50;99.90
26691;DHT22;14307;51.718;8.938;2024-01-16T13:26:44;0.50;99.90
26691;DHT22;14307;51.718;8.938;2024-01-16T13:29:11;0.50;99.90
26691;DHT22;14307;51.718;8.938;2024-01-16T13:31:38;0.50;99.90
26691;DHT22;14307;51.718;8.938;2024-01-16T13:34:05;0.50;99.90
26691;DHT22;14307;51.718;8.938;2024-01-16T13:36:32;0.50;99.90
26691;DHT22;14307;51.718;8.938;2024-01-16T13:39:19;0.50;99.90
26691;DHT22;14307;51.718;8.938;2024-01-16T13:41:47;0.50;99.90
26691;DHT22;14307;51.718;8.938;2024-01-16T13:44:14;0.50;99.90
26691;DHT22;14307;51.718;8.938;2024-01-16T13:46:41;0.60;99.90
26691;DHT22;14307;51.718;8.938;2024-01-16T13:49:26;0.50;99.90
26691;DHT22;14307;51.718;8.938;2024-01-16T13:51:53;0.50;99.90
26691;DHT22;14307;51.718;8.938;2024-01-16T13:54:21;0.50;99.90
26691;DHT22;14307;51.718;8.938;2024-01-16T13:56:47;0.50;99.90
26691;DHT22;14307;51.718;8.938;2024-01-16T13:59:31;0.50;99.90
26691;DHT22;14307;51.718;8.938;2024-01-16T14:01:58;0.50;99.90
26691;DHT22;14307;51.718;8.938;2024-01-16T14:04:25;0.50;99.90
26691;DHT22;14307;51.718;8.938;2024-01-16T14:06:52;0.50;99.90
26691;DHT22;14307;51.718;8.938;2024-01-16T14:09:38;0.50;99.90
26691;DHT22;14307;51.718;8.938;2024-01-16T14:12:09;0.60;99.90
26691;DHT22;14307;51.718;8.938;2024-01-16T14:14:36;0.50;99.90
26691;DHT22;14307;51.718;8.938;2024-01-16T14:17:05;0.50;99.90
26691;DHT22;14307;51.718;8.938;2024-01-16T14:19:34;0.50;99.90
26691;DHT22;14307;51.718;8.938;2024-01-16T14:22:02;0.50;99.90
26691;DHT22;14307;51.718;8.938;2024-01-16T14:24:29;0.50;99.90
26691;DHT22;14307;51.718;8.938;2024-01-16T14:26:59;0.60;99.90
26691;DHT22;14307;51.718;8.938;2024-01-16T14:29:26;0.50;99.90
26691;DHT22;14307;51.718;8.938;2024-01-16T14:31:53;0.50;99.90
26691;DHT22;14307;51.718;8.938;2024-01-16T14:34:22;0.50;99.90
26691;DHT22;14307;51.718;8.938;2024-01-16T14:36:50;0.40;99.90
26691;DHT22;14307;51.718;8.938;2024-01-16T14:39:17;0.40;99.90
26691;DHT22;14307;51.718;8.938;2024-01-16T14:41:48;0.40;99.90
26691;DHT22;14307;51.718;8.938;2024-01-16T14:44:15;0.40;99.90
26691;DHT22;14307;51.718;8.938;2024-01-16T14:46:42;0.40;99.90
26691;DHT22;14307;51.718;8.938;2024-01-16T14:49:13;0.30;99.90
26691;DHT22;14307;51.718;8.938;2024-01-16T14:51:40;0.30;99.90
26691;DHT22;14307;51.718;8.938;2024-01-16T14:54:07;0.30;99.90
26691;DHT22;14307;51.718;8.938;2024-01-16T14:56:35;0.30;99.90
26691;DHT22;14307;51.718;8.938;2024-01-16T14:59:02;0.20;99.90
26691;DHT22;14307;51.718;8.938;2024-01-16T15:01:29;0.20;99.90
26691;DHT22;14307;51.718;8.938;2024-01-16T15:03:56;0.10;99.90
26691;DHT22;14307;51.718;8.938;2024-01-16T15:06:24;0.20;99.90
26691;DHT22;14307;51.718;8.938;2024-01-16T15:08:54;0.20;99.90
26691;DHT22;14307;51.718;8.938;2024-01-16T15:11:21;0.20;99.90
26691;DHT22;14307;51.718;8.938;2024-01-16T15:13:49;0.20;99.90
26691;DHT22;14307;51.718;8.938;2024-01-16T15:16:16;0.20;99.90
26691;DHT22;14307;51.718;8.938;2024-01-16T15:18:43;0.20;99.90
26691;DHT22;14307;51.718;8.938;2024-01-16T15:21:10;0.10;99.90
26691;DHT22;14307;51.718;8.938;2024-01-16T15:23:37;0.10;99.90
26691;DHT22;14307;51.718;8.938;2024-01-16T15:26:04;0.10;99.90
26691;DHT22;14307;51.718;8.938;2024-01-16T15:28:32;0.10;99.90
26691;DHT22;14307;51.718;8.938;2024-01-16T15:31:02;0.10;99.90
26691;DHT22;14307;51.718;8.938;2024-01-16T15:33:34;0.00;99.90
26691;DHT22;14307;51.718;8.938;2024-01-16T15:36:03;0.00;99.90
26691;DHT22;14307;51.718;8.938;2024-01-16T15:38:30;0.00;99.90
26691;DHT22;14307;51.718;8.938;2024-01-16T15:40:58;-0.10;99.90
26691;DHT22;14307;51.718;8.938;2024-01-16T15:43:24;-0.20;99.90
26691;DHT22;14307;51.718;8.938;2024-01-16T15:45:51;-0.20;99.90
26691;DHT22;14307;51.718;8.938;2024-01-16T15:48:18;-0.20;99.90
26691;DHT22;14307;51.718;8.938;2024-01-16T15:50:45;-0.20;99.90
26691;DHT22;14307;51.718;8.938;2024-01-16T15:53:12;-0.30;99.90
26691;DHT22;14307;51.718;8.938;2024-01-16T15:55:42;-0.30;99.90
26691;DHT22;14307;51.718;8.938;2024-01-16T15:58:09;-0.40;99.90
26691;DHT22;14307;51.718;8.938;2024-01-16T16:00:36;-0.40;99.90
26691;DHT22;14307;51.718;8.938;2024-01-16T16:03:03;-0.50;99.90
26691;DHT22;14307;51.718;8.938;2024-01-16T16:05:30;-0.50;99.90
26691;DHT22;14307;51.718;8.938;2024-01-16T16:07:57;-0.60;99.90
26691;DHT22;14307;51.718;8.938;2024-01-16T16:10:24;-0.70;99.90
26691;DHT22;14307;51.718;8.938;2024-01-16T16:12:53;-0.70;99.90
26691;DHT22;14307;51.718;8.938;2024-01-16T16:15:20;-0.80;99.90
26691;DHT22;14307;51.718;8.938;2024-01-16T16:17:48;-0.90;99.90
26691;DHT22;14307;51.718;8.938;2024-01-16T16:20:15;-1.00;99.90
26691;DHT22;14307;51.718;8.938;2024-01-16T16:22:42;-1.00;99.90
26691;DHT22;14307;51.718;8.938;2024-01-16T16:25:11;-1.10;99.90
26691;DHT22;14307;51.718;8.938;2024-01-16T16:27:37;-1.20;99.90
26691;DHT22;14307;51.718;8.938;2024-01-16T16:30:05;-1.20;99.90
26691;DHT22;14307;51.718;8.938;2024-01-16T16:32:32;-1.20;99.90
26691;DHT22;14307;51.718;8.938;2024-01-16T16:34:59;-1.30;99.90
26691;DHT22;14307;51.718;8.938;2024-01-16T16:37:26;-1.30;99.90
26691;DHT22;14307;51.718;8.938;2024-01-16T16:39:53;-1.30;99.90
26691;DHT22;14307;51.718;8.938;2024-01-16T16:42:20;-1.30;99.90
26691;DHT22;14307;51.718;8.938;2024-01-16T16:44:47;-1.30;99.90
26691;DHT22;14307;51.718;8.938;2024-01-16T16:47:15;-1.30;99.90
26691;DHT22;14307;51.718;8.938;2024-01-16T16:49:43;-1.40;99.90
26691;DHT22;14307;51.718;8.938;2024-01-16T16:52:10;-1.40;99.90
26691;DHT22;14307;51.718;8.938;2024-01-16T16:54:37;-1.50;99.90
26691;DHT22;14307;51.718;8.938;2024-01-16T16:57:04;-1.50;99.90
26691;DHT22;14307;51.718;8.938;2024-01-16T16:59:32;-1.60;99.90
26691;DHT22;14307;51.718;8.938;2024-01-16T17:01:58;-1.60;99.90
26691;DHT22;14307;51.718;8.938;2024-01-16T17:04:26;-1.60;99.90
26691;DHT22;14307;51.718;8.938;2024-01-16T17:06:53;-1.60;99.90
26691;DHT22;14307;51.718;8.938;2024-01-16T17:09:22;-1.60;99.90
26691;DHT22;14307;51.718;8.938;2024-01-16T17:11:49;-1.60;99.90
26691;DHT22;14307;51.718;8.938;2024-01-16T17:14:16;-1.60;99.90